createdAt,value
2018-02-18T00:01:12.915Z,26.50
2018-02-18T00:03:40.400Z,27.40
2018-02-18T00:06:07.961Z,27.67
2018-02-18T00:08:35.448Z,24.17
2018-02-18T00:11:02.957Z,21.55
2018-02-18T00:13:30.452Z,21.95
2018-02-18T00:15:58.351Z,27.42
2018-02-18T00:18:25.836Z,29.30
2018-02-18T00:20:53.346Z,22.35
2018-02-18T00:23:20.921Z,20.27
2018-02-18T00:25:48.435Z,21.52
2018-02-18T00:28:15.929Z,27.17
2018-02-18T00:30:43.426Z,21.73
2018-02-18T00:33:10.936Z,20.15
2018-02-18T00:35:38.834Z,22.23
2018-02-18T00:38:06.348Z,19.50
2018-02-18T00:40:33.852Z,21.12
2018-02-18T00:43:01.820Z,25.33
2018-02-18T00:45:29.314Z,25.75
2018-02-18T00:47:56.815Z,20.15
2018-02-18T00:50:24.309Z,24.25
2018-02-18T00:52:51.820Z,21.55
2018-02-18T00:55:19.704Z,22.13
2018-02-18T00:57:47.209Z,25.00
2018-02-18T01:00:14.695Z,25.88
2018-02-18T01:02:42.296Z,24.67
2018-02-18T01:05:09.793Z,21.10
2018-02-18T01:07:37.472Z,23.45
2018-02-18T01:10:04.970Z,29.52
2018-02-18T01:12:32.486Z,29.10
2018-02-18T01:14:59.975Z,22.60
2018-02-18T01:17:27.945Z,22.92
2018-02-18T01:19:55.836Z,26.37
2018-02-18T01:22:23.344Z,20.17
2018-02-18T01:24:50.837Z,23.08
2018-02-18T01:27:18.354Z,22.42
2018-02-18T01:29:45.844Z,25.23
2018-02-18T01:32:13.352Z,23.25
2018-02-18T01:34:40.839Z,22.70
2018-02-18T01:37:08.350Z,23.58
2018-02-18T01:39:35.840Z,28.23
2018-02-18T01:42:03.350Z,20.88
2018-02-18T01:44:30.847Z,24.05
2018-02-18T01:46:58.352Z,24.35
2018-02-18T01:49:25.847Z,27.30
2018-02-18T01:51:53.444Z,22.02
2018-02-18T01:54:21.333Z,26.17
2018-02-18T01:56:49.236Z,28.62
2018-02-18T01:59:16.747Z,24.27
2018-02-18T02:01:44.241Z,26.92
2018-02-18T02:04:12.158Z,20.40
2018-02-18T02:06:39.687Z,27.33
2018-02-18T02:09:07.187Z,23.38
2018-02-18T02:11:34.682Z,29.37
2018-02-18T02:14:02.229Z,29.23
2018-02-18T02:16:29.716Z,26.87
2018-02-18T02:18:57.225Z,23.87
2018-02-18T02:21:24.742Z,28.95
2018-02-18T02:23:52.253Z,28.73
2018-02-18T02:26:19.757Z,33.47
2018-02-18T02:28:47.745Z,22.85
2018-02-18T02:31:15.239Z,27.55
2018-02-18T02:33:42.759Z,33.08
2018-02-18T02:36:10.274Z,28.77
2018-02-18T02:38:37.779Z,26.48
2018-02-18T02:41:05.286Z,26.12
2018-02-18T02:43:32.805Z,28.40
2018-02-18T02:46:00.302Z,28.38
2018-02-18T02:48:27.818Z,30.25
2018-02-18T02:50:55.714Z,23.20
2018-02-18T02:53:23.225Z,27.02
2018-02-18T02:55:50.722Z,30.92
2018-02-18T02:58:18.233Z,23.45
2018-02-18T03:00:45.723Z,35.58
2018-02-18T03:03:13.236Z,35.00
2018-02-18T03:05:41.125Z,29.23
2018-02-18T03:08:09.023Z,35.97
2018-02-18T03:10:36.573Z,29.08
2018-02-18T03:13:04.481Z,27.37
2018-02-18T03:15:31.982Z,30.20
2018-02-18T03:17:59.489Z,35.03
2018-02-18T03:20:27.077Z,30.83
2018-02-18T03:22:54.985Z,44.45
2018-02-18T03:25:22.482Z,34.75
2018-02-18T03:27:49.988Z,28.90
2018-02-18T03:30:17.894Z,35.42
2018-02-18T03:32:45.469Z,33.60
2018-02-18T03:35:13.013Z,32.78
2018-02-18T03:37:40.896Z,28.77
2018-02-18T03:40:08.795Z,30.75
2018-02-18T03:42:36.350Z,32.55
2018-02-18T03:45:04.258Z,35.53
2018-02-18T03:47:31.757Z,27.52
2018-02-18T03:49:59.270Z,30.85
2018-02-18T03:52:27.158Z,35.92
2018-02-18T03:54:55.060Z,40.17
2018-02-18T03:57:22.544Z,35.75
2018-02-18T03:59:50.054Z,34.20
2018-02-18T04:02:17.549Z,31.10
2018-02-18T04:04:45.525Z,31.12
2018-02-18T04:07:13.418Z,35.50
2018-02-18T04:09:40.934Z,33.30
2018-02-18T04:12:08.423Z,40.50
2018-02-18T04:14:35.924Z,37.33
2018-02-18T04:17:03.818Z,43.05
2018-02-18T04:19:31.356Z,35.03
2018-02-18T04:21:58.853Z,42.38
2018-02-18T04:24:26.365Z,35.20
2018-02-18T04:26:53.852Z,31.23
2018-02-18T04:29:21.361Z,36.45
2018-02-18T04:31:48.856Z,32.45
2018-02-18T04:34:16.373Z,33.10
2018-02-18T04:36:43.873Z,32.60
2018-02-18T04:39:11.416Z,33.13
2018-02-18T04:41:38.901Z,39.53
2018-02-18T04:44:06.810Z,38.95
2018-02-18T04:46:34.299Z,40.65
2018-02-18T04:49:01.805Z,39.70
2018-02-18T04:51:29.299Z,35.53
2018-02-18T04:53:57.200Z,43.25
2018-02-18T04:56:24.698Z,34.15
2018-02-18T04:58:52.193Z,37.22
2018-02-18T05:01:19.705Z,31.08
2018-02-18T05:03:47.314Z,38.65
2018-02-18T05:06:14.789Z,42.25
2018-02-18T05:08:42.275Z,40.83
2018-02-18T05:11:09.877Z,45.05
2018-02-18T05:13:37.764Z,38.40
2018-02-18T05:16:05.282Z,47.00
2018-02-18T05:18:32.777Z,45.42
2018-02-18T05:21:00.297Z,37.38
2018-02-18T05:23:27.784Z,42.70
2018-02-18T05:25:55.293Z,36.75
2018-02-18T05:28:22.789Z,39.53
2018-02-18T05:30:50.694Z,41.78
2018-02-18T05:33:18.190Z,45.90
2018-02-18T05:35:45.701Z,38.17
2018-02-18T05:38:14.089Z,37.38
2018-02-18T05:40:41.987Z,39.22
2018-02-18T05:43:09.471Z,40.45
2018-02-18T05:45:36.976Z,40.03
2018-02-18T05:48:04.469Z,35.47
2018-02-18T05:50:31.986Z,40.85
2018-02-18T05:52:59.472Z,47.15
2018-02-18T05:55:26.980Z,41.28
2018-02-18T05:57:54.472Z,41.22
2018-02-18T06:00:22.378Z,39.75
2018-02-18T06:02:49.864Z,47.80
2018-02-18T06:05:17.377Z,43.42
2018-02-18T06:07:45.270Z,42.90
2018-02-18T06:10:12.791Z,44.55
2018-02-18T06:12:40.281Z,41.20
2018-02-18T06:15:07.784Z,41.55
2018-02-18T06:17:35.678Z,50.65
2018-02-18T06:20:03.190Z,42.42
2018-02-18T06:22:30.685Z,44.10
2018-02-18T06:24:58.196Z,43.47
2018-02-18T06:27:25.693Z,47.22
2018-02-18T06:29:53.188Z,50.40
2018-02-18T06:32:20.706Z,43.97
2018-02-18T06:34:48.205Z,46.78
2018-02-18T06:37:15.707Z,41.15
2018-02-18T06:39:43.196Z,41.75
2018-02-18T06:42:11.181Z,44.55
2018-02-18T06:44:38.745Z,50.08
2018-02-18T06:47:06.653Z,42.20
2018-02-18T06:49:34.149Z,39.55
2018-02-18T06:52:01.658Z,52.85
2018-02-18T06:54:29.553Z,43.40
2018-02-18T06:56:57.460Z,50.20
2018-02-18T06:59:25.001Z,46.50
2018-02-18T07:01:52.903Z,40.97
2018-02-18T07:04:20.397Z,43.80
2018-02-18T07:06:47.910Z,46.42
2018-02-18T07:09:15.409Z,45.92
2018-02-18T07:11:42.955Z,45.65
2018-02-18T07:14:10.537Z,48.53
2018-02-18T07:16:38.448Z,50.70
2018-02-18T07:19:05.948Z,48.47
2018-02-18T07:21:33.547Z,45.40
2018-02-18T07:24:01.037Z,39.22
2018-02-18T07:26:29.034Z,50.35
2018-02-18T07:28:56.548Z,44.88
2018-02-18T07:31:24.062Z,46.75
2018-02-18T07:33:51.954Z,53.53
2018-02-18T07:36:19.455Z,39.25
2018-02-18T07:38:46.954Z,47.00
2018-02-18T07:41:14.470Z,40.17
2018-02-18T07:43:41.964Z,44.53
2018-02-18T07:46:09.477Z,44.55
2018-02-18T07:48:36.967Z,41.75
2018-02-18T07:51:04.879Z,41.10
2018-02-18T07:53:32.376Z,41.50
2018-02-18T07:55:59.865Z,47.30
2018-02-18T07:58:27.372Z,40.55
2018-02-18T08:00:54.865Z,40.80
2018-02-18T08:03:22.373Z,42.62
2018-02-18T08:05:49.882Z,49.00
2018-02-18T08:08:17.458Z,49.83
2018-02-18T08:10:45.026Z,49.13
2018-02-18T08:13:12.528Z,38.00
2018-02-18T08:15:40.007Z,46.95
2018-02-18T08:18:07.504Z,40.53
2018-02-18T08:20:34.989Z,42.88
2018-02-18T08:23:02.992Z,42.28
2018-02-18T08:25:30.485Z,40.75
2018-02-18T08:27:57.997Z,42.10
2018-02-18T08:30:25.484Z,43.42
2018-02-18T08:32:53.375Z,48.90
2018-02-18T08:35:21.345Z,39.95
2018-02-18T08:37:49.257Z,45.60
2018-02-18T08:40:16.763Z,88.30
2018-02-18T08:42:44.264Z,40.65
2018-02-18T08:45:12.149Z,44.13
2018-02-18T08:47:40.130Z,43.90
2018-02-18T08:50:08.027Z,40.35
2018-02-18T08:52:35.538Z,39.17
2018-02-18T08:55:03.028Z,40.30
2018-02-18T08:57:30.621Z,44.72
2018-02-18T08:59:58.518Z,39.22
2018-02-18T09:02:26.032Z,44.28
2018-02-18T09:04:53.521Z,48.17
2018-02-18T09:07:21.034Z,40.05
2018-02-18T09:09:48.530Z,37.35
2018-02-18T09:12:16.042Z,42.78
2018-02-18T09:14:43.536Z,40.00
2018-02-18T09:17:11.053Z,37.42
2018-02-18T09:19:38.542Z,40.00
2018-02-18T09:22:06.062Z,43.53
2018-02-18T09:24:33.543Z,33.65
2018-02-18T09:27:01.052Z,43.58
2018-02-18T09:29:28.561Z,33.20
2018-02-18T09:31:56.449Z,42.35
2018-02-18T09:34:23.982Z,32.72
2018-02-18T09:36:51.886Z,38.08
2018-02-18T09:39:19.791Z,35.72
2018-02-18T09:41:47.281Z,38.15
2018-02-18T09:44:14.787Z,35.72
2018-02-18T09:46:42.267Z,41.35
2018-02-18T09:49:10.169Z,37.75
2018-02-18T09:51:37.662Z,28.92
2018-02-18T09:54:05.169Z,36.70
2018-02-18T09:56:32.657Z,36.08
2018-02-18T09:59:00.556Z,42.70
2018-02-18T10:01:28.044Z,36.38
2018-02-18T10:03:55.544Z,38.55
2018-02-18T10:06:23.028Z,33.38
2018-02-18T10:08:50.532Z,34.85
2018-02-18T10:11:18.434Z,31.65
2018-02-18T10:13:45.949Z,36.45
2018-02-18T10:16:13.441Z,37.20
2018-02-18T10:18:42.058Z,33.90
2018-02-18T10:21:09.549Z,34.50
2018-02-18T10:23:37.077Z,33.08
2018-02-18T10:26:04.560Z,31.65
2018-02-18T10:28:32.471Z,31.08
2018-02-18T10:30:59.993Z,32.67
2018-02-18T10:33:27.609Z,31.27
2018-02-18T10:35:55.125Z,29.02
2018-02-18T10:38:22.655Z,36.72
2018-02-18T10:40:50.198Z,32.25
2018-02-18T10:43:18.109Z,33.83
2018-02-18T10:45:45.693Z,33.90
2018-02-18T10:48:13.201Z,31.02
2018-02-18T10:50:40.702Z,34.33
2018-02-18T10:53:08.209Z,31.67
2018-02-18T10:55:35.853Z,37.95
2018-02-18T10:58:03.413Z,25.50
2018-02-18T11:00:31.318Z,37.22
2018-02-18T11:02:58.820Z,33.33
2018-02-18T11:05:26.861Z,28.60
2018-02-18T11:07:54.341Z,30.25
2018-02-18T11:10:21.844Z,33.03
2018-02-18T11:12:49.338Z,27.25
2018-02-18T11:15:16.845Z,32.28
2018-02-18T11:17:44.379Z,30.05
2018-02-18T11:20:11.873Z,30.58
2018-02-18T11:22:39.758Z,30.75
2018-02-18T11:25:07.265Z,25.90
2018-02-18T11:27:34.758Z,27.55
2018-02-18T11:30:02.275Z,24.37
2018-02-18T11:32:29.916Z,24.40
2018-02-18T11:34:57.383Z,25.95
2018-02-18T11:37:25.044Z,28.38
2018-02-18T11:39:52.556Z,25.52
2018-02-18T11:42:20.509Z,24.83
2018-02-18T11:44:48.021Z,25.67
2018-02-18T11:47:15.736Z,21.95
2018-02-18T11:49:43.241Z,25.70
2018-02-18T11:52:11.189Z,23.05
2018-02-18T11:54:38.701Z,25.52
2018-02-18T11:57:06.700Z,24.17
2018-02-18T11:59:34.213Z,23.98
2018-02-18T12:02:01.736Z,25.77
2018-02-18T12:04:29.255Z,26.25
2018-02-18T12:06:56.836Z,26.92
2018-02-18T12:09:24.331Z,25.10
2018-02-18T12:11:52.492Z,24.30
2018-02-18T12:14:19.981Z,25.60
2018-02-18T12:16:47.696Z,25.37
2018-02-18T12:19:15.196Z,23.00
2018-02-18T12:21:42.845Z,28.15
2018-02-18T12:24:10.336Z,24.27
2018-02-18T12:26:37.941Z,22.27
2018-02-18T12:29:05.433Z,24.35
2018-02-18T12:31:33.481Z,21.15
2018-02-18T12:34:00.972Z,23.70
2018-02-18T12:36:28.570Z,23.08
2018-02-18T12:38:56.061Z,31.65
2018-02-18T12:41:23.824Z,29.58
2018-02-18T12:43:51.333Z,27.10
2018-02-18T12:46:19.071Z,23.25
2018-02-18T12:48:46.585Z,24.02
2018-02-18T12:51:14.258Z,23.77
2018-02-18T12:53:41.752Z,24.95
2018-02-18T12:56:09.290Z,20.55
2018-02-18T12:58:36.786Z,26.08
2018-02-18T13:01:04.402Z,25.98
2018-02-18T13:03:31.954Z,27.30
2018-02-18T13:05:59.937Z,23.02
2018-02-18T13:08:27.825Z,21.58
2018-02-18T13:10:55.925Z,24.25
2018-02-18T13:13:23.414Z,24.75
2018-02-18T13:15:51.048Z,20.75
2018-02-18T13:18:19.025Z,22.85
2018-02-18T13:20:46.999Z,26.17
2018-02-18T13:23:14.495Z,23.17
2018-02-18T13:25:42.033Z,24.63
2018-02-18T13:28:09.626Z,28.38
2018-02-18T13:30:37.528Z,25.95
2018-02-18T13:33:05.007Z,24.45
2018-02-18T13:35:32.613Z,26.73
2018-02-18T13:38:00.083Z,24.00
2018-02-18T13:40:27.592Z,23.25
2018-02-18T13:42:55.477Z,23.85
2018-02-18T13:45:23.361Z,26.60
2018-02-18T13:47:50.870Z,26.75
2018-02-18T13:50:18.353Z,21.20
2018-02-18T13:52:45.866Z,17.15
2018-02-18T13:55:13.835Z,26.00
2018-02-18T13:59:49.243Z,24.50
2018-02-18T14:02:16.749Z,26.65
2018-02-18T14:04:44.250Z,25.25
2018-02-18T14:07:11.765Z,26.65
2018-02-18T14:09:39.261Z,24.08
2018-02-18T14:12:06.774Z,25.25
2018-02-18T14:14:34.651Z,26.65
2018-02-18T14:17:02.561Z,26.08
2018-02-18T14:19:30.128Z,29.52
2018-02-18T14:21:57.642Z,31.33
2018-02-18T14:24:25.131Z,27.52
2018-02-18T14:26:52.641Z,27.10
2018-02-18T14:29:20.155Z,27.58
2018-02-18T14:31:47.669Z,27.17
2018-02-18T14:34:15.641Z,29.15
2018-02-18T14:36:43.210Z,24.77
2018-02-18T14:39:10.656Z,25.17
2018-02-18T14:41:50.101Z,26.25
2018-02-18T14:44:29.381Z,22.77
2018-02-18T14:47:09.376Z,24.48
2018-02-18T14:49:48.604Z,24.55
2018-02-18T14:52:28.478Z,25.90
2018-02-18T14:55:21.658Z,20.12
2018-02-18T14:57:49.170Z,27.25
2018-02-18T15:00:16.661Z,24.80
2018-02-18T15:02:44.166Z,26.12
2018-02-18T15:05:11.657Z,23.27
2018-02-18T15:07:39.177Z,20.65
2018-02-18T15:10:06.674Z,19.77
2018-02-18T15:12:34.165Z,19.27
2018-02-18T15:15:01.676Z,21.20
2018-02-18T15:17:29.161Z,24.87
2018-02-18T15:19:57.067Z,24.20
2018-02-18T15:22:24.566Z,23.20
2018-02-18T15:24:52.096Z,23.70
2018-02-18T15:27:19.980Z,24.45
2018-02-18T15:29:47.876Z,31.25
2018-02-18T15:32:15.365Z,21.80
2018-02-18T15:34:42.872Z,22.62
2018-02-18T15:37:10.359Z,23.48
2018-02-18T15:39:38.267Z,24.80
2018-02-18T15:42:05.765Z,22.23
2018-02-18T15:44:33.280Z,24.20
2018-02-18T15:47:01.173Z,22.27
2018-02-18T15:49:29.072Z,27.75
2018-02-18T15:51:56.565Z,28.10
2018-02-18T15:54:24.059Z,28.05
2018-02-18T15:56:51.545Z,23.70
2018-02-18T15:59:19.049Z,27.17
2018-02-18T16:01:47.463Z,18.30
2018-02-18T16:04:15.009Z,22.08
2018-02-18T16:06:42.488Z,23.95
2018-02-18T16:09:10.029Z,28.02
2018-02-18T16:11:37.917Z,20.80
2018-02-18T16:14:05.818Z,26.08
2018-02-18T16:16:33.311Z,26.05
2018-02-18T16:19:00.822Z,20.88
2018-02-18T16:21:28.318Z,27.37
2018-02-18T16:23:55.821Z,24.67
2018-02-18T16:26:23.317Z,27.20
2018-02-18T16:28:50.821Z,27.80
2018-02-18T16:31:18.710Z,29.50
2018-02-18T16:33:46.264Z,29.77
2018-02-18T16:36:14.176Z,26.70
2018-02-18T16:38:41.667Z,29.60
2018-02-18T16:41:09.181Z,26.45
2018-02-18T16:43:36.757Z,23.77
2018-02-18T16:46:04.768Z,21.50
2018-02-18T16:48:32.252Z,24.75
2018-02-18T16:50:59.811Z,24.85
2018-02-18T16:53:27.659Z,23.20
2018-02-18T16:55:55.165Z,22.42
2018-02-18T16:58:22.661Z,26.58
2018-02-18T17:00:50.163Z,29.50
2018-02-18T17:03:17.662Z,23.10
2018-02-18T17:05:45.172Z,26.42
2018-02-18T17:08:12.652Z,22.25
2018-02-18T17:10:40.161Z,25.92
2018-02-18T17:13:08.045Z,31.87
2018-02-18T17:15:35.557Z,22.52
2018-02-18T17:18:03.040Z,24.90
2018-02-18T17:20:30.540Z,22.77
2018-02-18T17:22:58.029Z,31.75
2018-02-18T17:25:25.929Z,30.12
2018-02-18T17:27:53.408Z,42.60
2018-02-18T17:30:20.912Z,25.25
2018-02-18T17:32:48.402Z,26.37
2018-02-18T17:35:15.914Z,24.58
2018-02-18T17:37:43.413Z,27.55
2018-02-18T17:40:10.918Z,26.12
2018-02-18T17:42:38.405Z,29.60
2018-02-18T17:45:06.313Z,29.17
2018-02-18T17:47:33.853Z,30.00
2018-02-18T17:50:01.766Z,24.10
2018-02-18T17:52:29.252Z,30.62
2018-02-18T17:54:56.760Z,28.30
2018-02-18T17:57:24.282Z,23.12
2018-02-18T17:59:51.785Z,27.52
2018-02-18T18:02:19.320Z,28.98
2018-02-18T18:04:46.858Z,34.30
2018-02-18T18:07:14.764Z,26.55
2018-02-18T18:09:42.309Z,30.33
2018-02-18T18:12:10.217Z,36.20
2018-02-18T18:14:37.711Z,27.17
2018-02-18T18:17:05.242Z,29.90
2018-02-18T18:19:32.734Z,35.03
2018-02-18T18:22:00.410Z,33.33
2018-02-18T18:24:28.262Z,25.60
2018-02-18T18:26:56.161Z,28.05
2018-02-18T18:29:23.702Z,35.97
2018-02-18T18:31:51.632Z,34.72
2018-02-18T18:34:19.126Z,32.45
2018-02-18T18:36:46.648Z,27.13
2018-02-18T18:39:14.138Z,33.33
2018-02-18T18:41:41.637Z,37.67
2018-02-18T18:44:09.129Z,30.27
2018-02-18T18:46:36.734Z,44.35
2018-02-18T18:49:04.606Z,33.00
2018-02-18T18:51:32.245Z,35.22
2018-02-18T18:53:59.727Z,27.23
2018-02-18T18:56:27.272Z,32.30
2018-02-18T18:58:54.765Z,33.20
2018-02-18T19:01:22.381Z,34.08
2018-02-18T19:03:49.870Z,30.35
2018-02-18T19:06:17.517Z,63.63
2018-02-18T19:08:45.040Z,50.95
2018-02-18T19:11:12.554Z,104.15
2018-02-18T19:13:40.065Z,40.67
2018-02-18T19:16:07.563Z,35.53
2018-02-18T19:18:35.054Z,36.33
2018-02-18T19:21:02.961Z,35.47
2018-02-18T19:23:30.445Z,36.70
2018-02-18T19:25:57.959Z,42.38
2018-02-18T19:28:25.546Z,36.50
2018-02-18T19:30:53.041Z,35.80
2018-02-18T19:33:20.550Z,36.60
2018-02-18T19:35:48.057Z,31.30
2018-02-18T19:38:15.955Z,35.22
2018-02-18T19:40:43.462Z,31.85
2018-02-18T19:43:10.969Z,39.83
2018-02-18T19:45:38.896Z,33.00
2018-02-18T19:48:06.406Z,34.55
2018-02-18T19:50:34.021Z,40.50
2018-02-18T19:53:01.531Z,33.60
2018-02-18T19:55:29.031Z,30.85
2018-02-18T19:57:56.546Z,33.95
2018-02-18T20:00:24.036Z,34.85
2018-02-18T20:02:51.536Z,33.78
2018-02-18T20:05:19.025Z,36.70
2018-02-18T20:07:46.926Z,32.00
2018-02-18T20:10:14.417Z,39.30
2018-02-18T20:12:41.921Z,34.40
2018-02-18T20:15:09.412Z,37.75
2018-02-18T20:17:37.308Z,34.13
2018-02-18T20:20:05.198Z,39.83
2018-02-18T20:22:32.705Z,35.72
2018-02-18T20:25:00.206Z,41.35
2018-02-18T20:27:27.785Z,30.92
2018-02-18T20:29:55.230Z,41.28
2018-02-18T20:32:22.750Z,35.63
2018-02-18T20:34:50.237Z,36.22
2018-02-18T20:37:17.741Z,34.35
2018-02-18T20:39:45.224Z,41.78
2018-02-18T20:42:12.749Z,44.30
2018-02-18T20:44:40.241Z,39.97
2018-02-18T20:47:07.763Z,24.87
2018-02-18T20:49:35.645Z,33.00
2018-02-18T20:52:03.609Z,35.20
2018-02-18T20:54:31.097Z,40.10
2018-02-18T20:56:59.011Z,45.25
2018-02-18T20:59:26.497Z,37.75
2018-02-18T21:01:53.985Z,32.85
2018-02-18T21:04:21.508Z,45.38
2018-02-18T21:06:49.004Z,40.53
2018-02-18T21:09:16.508Z,37.88
2018-02-18T21:11:44.001Z,43.22
2018-02-18T21:14:11.512Z,35.35
2018-02-18T21:16:39.001Z,43.60
2018-02-18T21:19:06.518Z,34.92
2018-02-18T21:21:34.008Z,43.15
2018-02-18T21:24:01.511Z,43.60
2018-02-18T21:26:28.995Z,41.53
2018-02-18T21:28:56.496Z,38.40
2018-02-18T21:31:24.382Z,40.47
2018-02-18T21:33:51.894Z,39.75
2018-02-18T21:36:19.389Z,40.65
2018-02-18T21:38:46.901Z,46.05
2018-02-18T21:41:14.385Z,43.20
2018-02-18T21:43:41.898Z,39.90
2018-02-18T21:46:09.385Z,36.08
2018-02-18T21:48:37.390Z,42.38
2018-02-18T21:51:04.881Z,38.97
2018-02-18T21:53:32.383Z,45.88
2018-02-18T21:55:59.877Z,39.45
2018-02-18T21:58:27.789Z,38.72
2018-02-18T22:00:55.294Z,41.05
2018-02-18T22:03:22.804Z,42.40
2018-02-18T22:05:50.690Z,46.35
2018-02-18T22:08:18.589Z,48.65
2018-02-18T22:10:46.073Z,41.90
2018-02-18T22:13:13.586Z,38.10
2018-02-18T22:15:41.073Z,41.45
2018-02-18T22:18:08.963Z,49.38
2018-02-18T22:20:36.843Z,49.55
2018-02-18T22:23:04.749Z,46.53
2018-02-18T22:25:32.253Z,42.00
2018-02-18T22:27:59.749Z,45.78
2018-02-18T22:30:27.661Z,45.78
2018-02-18T22:32:55.157Z,41.78
2018-02-18T22:35:22.664Z,44.00
2018-02-18T22:37:50.157Z,39.70
2018-02-18T22:40:18.056Z,47.72
2018-02-18T22:42:45.554Z,43.87
2018-02-18T22:45:13.055Z,44.47
2018-02-18T22:47:40.545Z,41.80
2018-02-18T22:50:08.451Z,44.70
2018-02-18T22:52:35.948Z,41.08
2018-02-18T22:55:03.453Z,44.08
2018-02-18T22:57:30.935Z,44.83
2018-02-18T22:59:58.837Z,42.72
2018-02-18T23:02:26.321Z,41.92
2018-02-18T23:04:54.301Z,42.60
2018-02-18T23:07:21.793Z,48.17
2018-02-18T23:09:49.316Z,48.50
2018-02-18T23:12:17.200Z,41.58
2018-02-18T23:14:44.699Z,48.40
2018-02-18T23:17:12.185Z,42.72
2018-02-18T23:19:39.704Z,55.85
2018-02-18T23:22:07.589Z,40.97
2018-02-18T23:24:35.098Z,45.15
2018-02-18T23:27:02.585Z,49.05
2018-02-18T23:29:30.093Z,46.90
2018-02-18T23:31:57.977Z,49.72
2018-02-18T23:34:25.882Z,51.65
2018-02-18T23:36:53.377Z,49.35
2018-02-18T23:39:20.893Z,48.78
2018-02-18T23:41:48.775Z,45.42
2018-02-18T23:44:16.673Z,49.33
2018-02-18T23:46:44.160Z,41.67
2018-02-18T23:49:11.682Z,40.83
2018-02-18T23:51:39.260Z,48.92
2018-02-18T23:54:07.240Z,46.53
2018-02-18T23:56:35.146Z,49.88
2018-02-18T23:59:02.651Z,45.20
